sensor_id;sensor_type;location;lat;lon;timestamp;pressure;altitude;pressure_sealevel;temperature;humidity
65227;BME280;51805;49.012;12.104;2023-05-01T00:01:26;97866.09;;;22.23;46.92
65227;BME280;51805;49.012;12.104;2023-05-01T00:03:51;97857.19;;;22.22;46.88
65227;BME280;51805;49.012;12.104;2023-05-01T00:06:16;97863.16;;;22.19;46.96
65227;BME280;51805;49.012;12.104;2023-05-01T00:08:41;97855.81;;;22.20;46.91
65227;BME280;51805;49.012;12.104;2023-05-01T00:11:07;97847.44;;;22.16;47.03
65227;BME280;51805;49.012;12.104;2023-05-01T00:13:32;97849.34;;;22.21;47.01
65227;BME280;51805;49.012;12.104;2023-05-01T00:15:57;97827.53;;;22.02;46.83
65227;BME280;51805;49.012;12.104;2023-05-01T00:18:23;97847.44;;;22.21;46.88
65227;BME280;51805;49.012;12.104;2023-05-01T00:20:48;97848.53;;;22.20;47.08
65227;BME280;51805;49.012;12.104;2023-05-01T00:23:13;97848.53;;;22.20;47.07
65227;BME280;51805;49.012;12.104;2023-05-01T00:25:38;97848.81;;;22.19;47.02
65227;BME280;51805;49.012;12.104;2023-05-01T00:28:04;97841.50;;;22.19;46.91
65227;BME280;51805;49.012;12.104;2023-05-01T00:30:31;97844.47;;;22.18;47.05
65227;BME280;51805;49.012;12.104;2023-05-01T00:32:56;97831.22;;;22.16;47.12
65227;BME280;51805;49.012;12.104;2023-05-01T00:35:22;97832.84;;;22.17;47.18
65227;BME280;51805;49.012;12.104;2023-05-01T00:37:47;97839.88;;;22.18;46.99
65227;BME280;51805;49.012;12.104;2023-05-01T00:40:12;97841.50;;;22.19;46.86
65227;BME280;51805;49.012;12.104;2023-05-01T00:42:37;97834.44;;;22.18;46.92
65227;BME280;51805;49.012;12.104;2023-05-01T00:45:03;97831.22;;;22.16;47.02
65227;BME280;51805;49.012;12.104;2023-05-01T00:47:28;97833.41;;;22.14;46.95
65227;BME280;51805;49.012;12.104;2023-05-01T00:49:54;97824.19;;;22.15;47.06
65227;BME280;51805;49.012;12.104;2023-05-01T00:52:19;97823.09;;;22.16;46.95
65227;BME280;51805;49.012;12.104;2023-05-01T00:54:45;97823.38;;;22.15;47.01
65227;BME280;51805;49.012;12.104;2023-05-01T00:57:10;97824.19;;;22.15;46.97
65227;BME280;51805;49.012;12.104;2023-05-01T00:59:36;97799.38;;;21.98;47.06
65227;BME280;51805;49.012;12.104;2023-05-01T01:02:01;97818.22;;;22.13;47.26
65227;BME280;51805;49.012;12.104;2023-05-01T01:04:27;97818.22;;;22.13;47.21
65227;BME280;51805;49.012;12.104;2023-05-01T01:08:00;97808.50;;;22.12;47.14
65227;BME280;51805;49.012;12.104;2023-05-01T01:10:15;97805.25;;;22.10;47.01
65227;BME280;51805;49.012;12.104;2023-05-01T01:12:52;97790.94;;;22.10;46.99
65227;BME280;51805;49.012;12.104;2023-05-01T01:15:36;97798.78;;;22.11;47.03
65227;BME280;51805;49.012;12.104;2023-05-01T01:18:11;97791.72;;;22.10;47.24
65227;BME280;51805;49.012;12.104;2023-05-01T01:20:47;97786.31;;;22.10;47.12
65227;BME280;51805;49.012;12.104;2023-05-01T01:29:50;97786.88;;;22.07;47.30
65227;BME280;51805;49.012;12.104;2023-05-01T01:35:25;97777.47;;;22.00;47.32
65227;BME280;51805;49.012;12.104;2023-05-01T01:37:59;97776.06;;;22.07;47.17
65227;BME280;51805;49.012;12.104;2023-05-01T01:40:32;97777.16;;;22.06;47.28
65227;BME280;51805;49.012;12.104;2023-05-01T01:43:02;97773.34;;;22.07;47.08
65227;BME280;51805;49.012;12.104;2023-05-01T01:45:54;97769.03;;;22.06;47.15
65227;BME280;51805;49.012;12.104;2023-05-01T01:48:21;97751.78;;;21.97;47.25
65227;BME280;51805;49.012;12.104;2023-05-01T01:50:47;97759.31;;;22.05;47.24
65227;BME280;51805;49.012;12.104;2023-05-01T01:53:17;97757.66;;;22.04;47.06
65227;BME280;51805;49.012;12.104;2023-05-01T01:55:43;97759.31;;;22.05;47.19
65227;BME280;51805;49.012;12.104;2023-05-01T01:58:10;97756.06;;;22.03;47.25
65227;BME280;51805;49.012;12.104;2023-05-01T02:00:37;97739.59;;;21.95;47.43
65227;BME280;51805;49.012;12.104;2023-05-01T02:03:04;97748.22;;;22.02;47.21
65227;BME280;51805;49.012;12.104;2023-05-01T02:05:30;97751.22;;;22.00;47.23
65227;BME280;51805;49.012;12.104;2023-05-01T02:07:57;97743.09;;;22.00;47.37
65227;BME280;51805;49.012;12.104;2023-05-01T02:10:24;97737.97;;;21.99;47.32
65227;BME280;51805;49.012;12.104;2023-05-01T02:12:53;97730.44;;;21.91;47.28
65227;BME280;51805;49.012;12.104;2023-05-01T02:15:21;97742.56;;;21.98;47.43
65227;BME280;51805;49.012;12.104;2023-05-01T02:17:47;97744.72;;;21.96;47.28
65227;BME280;51805;49.012;12.104;2023-05-01T02:20:14;97743.66;;;21.97;47.20
65227;BME280;51805;49.012;12.104;2023-05-01T02:22:40;97735.53;;;21.97;47.50
65227;BME280;51805;49.012;12.104;2023-05-01T02:25:11;97742.84;;;21.97;47.42
65227;BME280;51805;49.012;12.104;2023-05-01T02:27:49;97738.53;;;21.96;47.44
65227;BME280;51805;49.012;12.104;2023-05-01T02:30:16;97733.91;;;21.96;47.32
65227;BME280;51805;49.012;12.104;2023-05-01T02:32:41;97711.53;;;21.86;47.46
65227;BME280;51805;49.012;12.104;2023-05-01T02:35:07;97728.50;;;21.96;47.43
65227;BME280;51805;49.012;12.104;2023-05-01T02:37:32;97727.19;;;21.94;47.32
65227;BME280;51805;49.012;12.104;2023-05-01T02:39:59;97728.50;;;21.96;47.22
65227;BME280;51805;49.012;12.104;2023-05-01T02:42:25;97720.44;;;21.91;47.40
65227;BME280;51805;49.012;12.104;2023-05-01T02:45:01;97722.59;;;21.94;47.29
65227;BME280;51805;49.012;12.104;2023-05-01T02:47:29;97725.28;;;21.94;47.36
65227;BME280;51805;49.012;12.104;2023-05-01T02:49:57;97709.63;;;21.91;47.42
65227;BME280;51805;49.012;12.104;2023-05-01T02:52:23;97707.41;;;21.93;47.54
65227;BME280;51805;49.012;12.104;2023-05-01T02:54:48;97709.63;;;21.91;47.49
65227;BME280;51805;49.012;12.104;2023-05-01T02:57:16;97704.22;;;21.91;47.43
65227;BME280;51805;49.012;12.104;2023-05-01T02:59:41;97700.97;;;21.89;47.30
65227;BME280;51805;49.012;12.104;2023-05-01T03:02:06;97703.94;;;21.88;47.46
65227;BME280;51805;49.012;12.104;2023-05-01T03:04:32;97699.38;;;21.83;47.50
65227;BME280;51805;49.012;12.104;2023-05-01T03:06:57;97695.56;;;21.89;47.44
65227;BME280;51805;49.012;12.104;2023-05-01T03:09:22;97698.25;;;21.89;47.54
65227;BME280;51805;49.012;12.104;2023-05-01T03:11:47;97694.72;;;21.89;47.54
65227;BME280;51805;49.012;12.104;2023-05-01T03:14:13;97689.31;;;21.89;47.34
65227;BME280;51805;49.012;12.104;2023-05-01T03:16:38;97699.34;;;21.88;47.50
65227;BME280;51805;49.012;12.104;2023-05-01T03:19:03;97693.94;;;21.88;47.50
65227;BME280;51805;49.012;12.104;2023-05-01T03:21:29;97687.72;;;21.88;47.37
65227;BME280;51805;49.012;12.104;2023-05-01T03:23:54;97688.00;;;21.86;47.40
65227;BME280;51805;49.012;12.104;2023-05-01T03:26:19;97685.28;;;21.86;47.49
65227;BME280;51805;49.012;12.104;2023-05-01T03:28:45;97679.88;;;21.86;47.35
65227;BME280;51805;49.012;12.104;2023-05-01T03:31:10;97685.28;;;21.86;47.49
65227;BME280;51805;49.012;12.104;2023-05-01T03:33:35;97683.69;;;21.85;47.51
65227;BME280;51805;49.012;12.104;2023-05-01T03:36:02;97681.78;;;21.86;47.46
65227;BME280;51805;49.012;12.104;2023-05-01T03:38:27;97686.41;;;21.85;47.45
65227;BME280;51805;49.012;12.104;2023-05-01T03:40:53;97681.25;;;21.84;47.20
65227;BME280;51805;49.012;12.104;2023-05-01T03:43:18;97675.59;;;21.80;47.30
65227;BME280;51805;49.012;12.104;2023-05-01T03:45:43;97676.13;;;21.82;47.56
65227;BME280;51805;49.012;12.104;2023-05-01T03:48:08;97682.06;;;21.84;47.33
65227;BME280;51805;49.012;12.104;2023-05-01T03:50:34;97679.34;;;21.84;47.34
65227;BME280;51805;49.012;12.104;2023-05-01T03:52:59;97673.44;;;21.82;47.42
65227;BME280;51805;49.012;12.104;2023-05-01T03:55:24;97672.34;;;21.83;47.36
65227;BME280;51805;49.012;12.104;2023-05-01T03:57:49;97664.22;;;21.83;47.45
65227;BME280;51805;49.012;12.104;2023-05-01T04:00:15;97664.78;;;21.80;47.49
65227;BME280;51805;49.012;12.104;2023-05-01T04:02:40;97663.19;;;21.79;47.41
65227;BME280;51805;49.012;12.104;2023-05-01T04:05:06;97669.63;;;21.83;47.55
65227;BME280;51805;49.012;12.104;2023-05-01T04:07:31;97665.03;;;21.84;47.56
65227;BME280;51805;49.012;12.104;2023-05-01T04:09:56;97665.81;;;21.84;47.63
65227;BME280;51805;49.012;12.104;2023-05-01T04:12:21;97673.44;;;21.82;47.80
65227;BME280;51805;49.012;12.104;2023-05-01T04:14:47;97664.22;;;21.83;47.68
65227;BME280;51805;49.012;12.104;2023-05-01T04:17:12;97672.34;;;21.83;47.92
65227;BME280;51805;49.012;12.104;2023-05-01T04:19:37;97665.31;;;21.82;48.11
65227;BME280;51805;49.012;12.104;2023-05-01T04:22:03;97666.09;;;21.83;48.00
65227;BME280;51805;49.012;12.104;2023-05-01T04:24:28;97665.31;;;21.82;48.05
65227;BME280;51805;49.012;12.104;2023-05-01T04:26:53;97669.63;;;21.83;48.21
65227;BME280;51805;49.012;12.104;2023-05-01T04:29:18;97669.63;;;21.83;48.25
65227;BME280;51805;49.012;12.104;2023-05-01T04:31:44;97665.81;;;21.84;48.25
65227;BME280;51805;49.012;12.104;2023-05-01T04:34:09;97664.22;;;21.83;48.35
65227;BME280;51805;49.012;12.104;2023-05-01T04:36:34;97663.13;;;21.84;48.44
65227;BME280;51805;49.012;12.104;2023-05-01T04:39:00;97658.81;;;21.83;48.67
65227;BME280;51805;49.012;12.104;2023-05-01T04:41:25;97649.59;;;21.84;48.69
65227;BME280;51805;49.012;12.104;2023-05-01T04:43:50;97664.75;;;21.85;48.58
65227;BME280;51805;49.012;12.104;2023-05-01T04:46:15;97663.66;;;21.86;48.67
65227;BME280;51805;49.012;12.104;2023-05-01T04:48:47;97669.06;;;21.86;48.73
65227;BME280;51805;49.012;12.104;2023-05-01T04:51:13;97672.59;;;21.87;48.73
65227;BME280;51805;49.012;12.104;2023-05-01T04:53:38;97673.09;;;21.89;48.50
65227;BME280;51805;49.012;12.104;2023-05-01T04:56:04;97665.81;;;21.84;48.58
65227;BME280;51805;49.012;12.104;2023-05-01T04:58:29;97672.88;;;21.85;48.54
65227;BME280;51805;49.012;12.104;2023-05-01T05:00:55;97669.59;;;21.88;48.49
65227;BME280;51805;49.012;12.104;2023-05-01T05:03:20;97673.91;;;21.89;48.52
65227;BME280;51805;49.012;12.104;2023-05-01T05:05:45;97678.50;;;21.89;48.62
65227;BME280;51805;49.012;12.104;2023-05-01T05:08:10;97682.03;;;21.89;48.70
65227;BME280;51805;49.012;12.104;2023-05-01T05:10:36;97677.19;;;21.86;48.83
65227;BME280;51805;49.012;12.104;2023-05-01T05:13:01;97682.03;;;21.89;48.46
65227;BME280;51805;49.012;12.104;2023-05-01T05:15:26;97686.34;;;21.90;48.63
65227;BME280;51805;49.012;12.104;2023-05-01T05:17:52;97681.75;;;21.91;48.53
65227;BME280;51805;49.012;12.104;2023-05-01T05:20:17;97679.31;;;21.89;48.54
65227;BME280;51805;49.012;12.104;2023-05-01T05:22:42;97680.94;;;21.90;48.49
65227;BME280;51805;49.012;12.104;2023-05-01T05:25:08;97679.84;;;21.91;48.56
65227;BME280;51805;49.012;12.104;2023-05-01T05:27:33;97675.22;;;21.92;48.51
65227;BME280;51805;49.012;12.104;2023-05-01T05:29:58;97673.34;;;21.92;48.53
65227;BME280;51805;49.012;12.104;2023-05-01T05:32:23;97667.94;;;21.92;48.47
65227;BME280;51805;49.012;12.104;2023-05-01T05:34:49;97669.53;;;21.93;48.72
65227;BME280;51805;49.012;12.104;2023-05-01T05:37:14;97668.75;;;21.93;48.39
65227;BME280;51805;49.012;12.104;2023-05-01T05:39:39;97676.59;;;21.94;48.52
65227;BME280;51805;49.012;12.104;2023-05-01T05:42:05;97672.78;;;21.95;48.63
65227;BME280;51805;49.012;12.104;2023-05-01T05:44:30;97672.78;;;21.95;48.53
65227;BME280;51805;49.012;12.104;2023-05-01T05:46:55;97676.03;;;21.97;48.56
65227;BME280;51805;49.012;12.104;2023-05-01T05:49:20;97676.03;;;21.97;48.70
65227;BME280;51805;49.012;12.104;2023-05-01T05:51:46;97677.63;;;21.98;48.66
65227;BME280;51805;49.012;12.104;2023-05-01T05:54:11;97674.63;;;22.00;48.52
65227;BME280;51805;49.012;12.104;2023-05-01T05:56:36;97686.81;;;22.02;48.51
65227;BME280;51805;49.012;12.104;2023-05-01T05:59:01;97673.00;;;22.04;48.58
65227;BME280;51805;49.012;12.104;2023-05-01T06:01:27;97678.91;;;22.06;48.50
65227;BME280;51805;49.012;12.104;2023-05-01T06:03:52;97668.63;;;22.08;48.40
65227;BME280;51805;49.012;12.104;2023-05-01T06:06:17;97677.00;;;22.11;48.42
65227;BME280;51805;49.012;12.104;2023-05-01T06:08:43;97661.31;;;22.08;48.47
65227;BME280;51805;49.012;12.104;2023-05-01T06:11:08;97663.41;;;22.16;48.30
65227;BME280;51805;49.012;12.104;2023-05-01T06:13:33;97666.63;;;22.18;48.13
65227;BME280;51805;49.012;12.104;2023-05-01T06:15:59;97672.88;;;22.19;48.20
65227;BME280;51805;49.012;12.104;2023-05-01T06:18:24;97659.34;;;22.19;48.15
65227;BME280;51805;49.012;12.104;2023-05-01T06:20:49;97655.00;;;22.18;48.07
65227;BME280;51805;49.012;12.104;2023-05-01T06:23:15;97662.03;;;22.19;48.19
65227;BME280;51805;49.012;12.104;2023-05-01T06:25:40;97660.41;;;22.18;48.23
65227;BME280;51805;49.012;12.104;2023-05-01T06:28:05;97656.34;;;22.20;48.24
65227;BME280;51805;49.012;12.104;2023-05-01T06:30:31;97655.25;;;22.21;48.15
65227;BME280;51805;49.012;12.104;2023-05-01T06:32:56;97643.84;;;22.24;48.08
65227;BME280;51805;49.012;12.104;2023-05-01T06:35:21;97646.25;;;22.26;48.11
65227;BME280;51805;49.012;12.104;2023-05-01T06:37:46;97636.25;;;22.26;48.15
65227;BME280;51805;49.012;12.104;2023-05-01T06:40:12;97642.19;;;22.28;48.04
65227;BME280;51805;49.012;12.104;2023-05-01T06:42:37;97641.09;;;22.29;47.98
65227;BME280;51805;49.012;12.104;2023-05-01T06:45:04;97638.38;;;22.29;48.02
65227;BME280;51805;49.012;12.104;2023-05-01T06:47:30;97638.63;;;22.33;47.83
65227;BME280;51805;49.012;12.104;2023-05-01T06:49:55;97639.41;;;22.33;47.82
65227;BME280;51805;49.012;12.104;2023-05-01T06:52:21;97631.81;;;22.35;47.79
65227;BME280;51805;49.012;12.104;2023-05-01T06:54:46;97631.81;;;22.35;47.79
65227;BME280;51805;49.012;12.104;2023-05-01T06:57:11;97626.94;;;22.37;47.88
65227;BME280;51805;49.012;12.104;2023-05-01T06:59:36;97631.25;;;22.38;47.75
65227;BME280;51805;49.012;12.104;2023-05-01T07:02:02;97634.50;;;22.40;47.86
65227;BME280;51805;49.012;12.104;2023-05-01T07:04:27;97628.25;;;22.40;47.80
65227;BME280;51805;49.012;12.104;2023-05-01T07:06:52;97631.78;;;22.40;47.79
65227;BME280;51805;49.012;12.104;2023-05-01T07:09:17;97629.06;;;22.40;47.65
65227;BME280;51805;49.012;12.104;2023-05-01T07:11:43;97626.91;;;22.42;47.61
65227;BME280;51805;49.012;12.104;2023-05-01T07:14:08;97631.22;;;22.43;47.86
65227;BME280;51805;49.012;12.104;2023-05-01T07:16:33;97625.78;;;22.43;47.68
65227;BME280;51805;49.012;12.104;2023-05-01T07:18:59;97626.63;;;22.44;47.85
65227;BME280;51805;49.012;12.104;2023-05-01T07:21:24;97622.81;;;22.45;47.75
65227;BME280;51805;49.012;12.104;2023-05-01T07:23:49;97619.00;;;22.46;47.88
65227;BME280;51805;49.012;12.104;2023-05-01T07:26:15;97622.50;;;22.46;47.53
65227;BME280;51805;49.012;12.104;2023-05-01T07:28:40;97614.09;;;22.48;47.52
65227;BME280;51805;49.012;12.104;2023-05-01T07:31:05;97610.28;;;22.49;47.48
65227;BME280;51805;49.012;12.104;2023-05-01T07:33:30;97616.22;;;22.56;47.47
65227;BME280;51805;49.012;12.104;2023-05-01T07:35:56;97617.00;;;22.56;47.40
65227;BME280;51805;49.012;12.104;2023-05-01T07:38:22;97618.13;;;22.55;47.52
65227;BME280;51805;49.012;12.104;2023-05-01T07:40:47;97618.34;;;22.59;47.37
65227;BME280;51805;49.012;12.104;2023-05-01T07:43:16;97619.13;;;22.59;47.50
65227;BME280;51805;49.012;12.104;2023-05-01T07:45:41;97626.19;;;22.60;47.33
65227;BME280;51805;49.012;12.104;2023-05-01T07:48:06;97618.06;;;22.60;47.48
65227;BME280;51805;49.012;12.104;2023-05-01T07:50:32;97623.19;;;22.62;47.43
65227;BME280;51805;49.012;12.104;2023-05-01T07:52:57;97627.22;;;22.64;47.16
65227;BME280;51805;49.012;12.104;2023-05-01T07:55:23;97626.16;;;22.65;47.43
65227;BME280;51805;49.012;12.104;2023-05-01T07:57:48;97624.78;;;22.63;47.41
65227;BME280;51805;49.012;12.104;2023-05-01T08:00:14;97628.31;;;22.63;47.46
65227;BME280;51805;49.012;12.104;2023-05-01T08:02:40;97621.00;;;22.64;47.33
65227;BME280;51805;49.012;12.104;2023-05-01T08:05:05;97616.97;;;22.61;47.36
65227;BME280;51805;49.012;12.104;2023-05-01T08:07:31;97626.44;;;22.64;47.36
65227;BME280;51805;49.012;12.104;2023-05-01T08:09:56;97612.94;;;22.59;47.41
65227;BME280;51805;49.012;12.104;2023-05-01T08:12:21;97621.00;;;22.64;47.36
65227;BME280;51805;49.012;12.104;2023-05-01T08:14:47;97624.50;;;22.64;47.42
65227;BME280;51805;49.012;12.104;2023-05-01T08:17:12;97627.22;;;22.64;47.55
65227;BME280;51805;49.012;12.104;2023-05-01T08:19:37;97626.44;;;22.64;47.34
65227;BME280;51805;49.012;12.104;2023-05-01T08:22:03;97617.50;;;22.63;47.52
65227;BME280;51805;49.012;12.104;2023-05-01T08:24:28;97614.78;;;22.63;47.49
65227;BME280;51805;49.012;12.104;2023-05-01T08:26:54;97620.72;;;22.65;47.37
65227;BME280;51805;49.012;12.104;2023-05-01T08:29:19;97625.03;;;22.66;47.34
65227;BME280;51805;49.012;12.104;2023-05-01T08:31:44;97613.19;;;22.62;47.34
65227;BME280;51805;49.012;12.104;2023-05-01T08:34:10;97621.81;;;22.64;47.48
65227;BME280;51805;49.012;12.104;2023-05-01T08:36:35;97616.38;;;22.64;47.32
65227;BME280;51805;49.012;12.104;2023-05-01T08:39:00;97618.50;;;22.67;47.38
65227;BME280;51805;49.012;12.104;2023-05-01T08:41:26;97606.91;;;22.67;47.46
65227;BME280;51805;49.012;12.104;2023-05-01T08:43:52;97604.97;;;22.67;47.34
65227;BME280;51805;49.012;12.104;2023-05-01T08:46:24;97607.69;;;22.67;47.28
65227;BME280;51805;49.012;12.104;2023-05-01T08:48:50;97602.34;;;22.62;47.41
65227;BME280;51805;49.012;12.104;2023-05-01T08:51:17;97613.09;;;22.67;47.35
65227;BME280;51805;49.012;12.104;2023-05-01T08:53:43;97612.31;;;22.67;47.40
65227;BME280;51805;49.012;12.104;2023-05-01T08:56:10;97609.59;;;22.67;47.34
65227;BME280;51805;49.012;12.104;2023-05-01T08:58:36;97608.50;;;22.68;47.45
65227;BME280;51805;49.012;12.104;2023-05-01T09:01:01;97599.56;;;22.67;47.07
65227;BME280;51805;49.012;12.104;2023-05-01T09:03:30;97601.47;;;22.67;47.28
65227;BME280;51805;49.012;12.104;2023-05-01T09:05:56;97598.47;;;22.68;47.31
65227;BME280;51805;49.012;12.104;2023-05-01T09:08:22;97593.84;;;22.69;47.41
65227;BME280;51805;49.012;12.104;2023-05-01T09:10:47;97595.78;;;22.68;47.29
65227;BME280;51805;49.012;12.104;2023-05-01T09:13:13;97591.97;;;22.69;47.45
65227;BME280;51805;49.012;12.104;2023-05-01T09:15:39;97590.34;;;22.68;47.32
65227;BME280;51805;49.012;12.104;2023-05-01T09:18:04;97598.97;;;22.70;47.50
65227;BME280;51805;49.012;12.104;2023-05-01T09:20:30;97594.94;;;22.68;47.40
65227;BME280;51805;49.012;12.104;2023-05-01T09:22:55;97593.84;;;22.69;47.45
65227;BME280;51805;49.012;12.104;2023-05-01T09:25:21;97601.69;;;22.70;47.26
65227;BME280;51805;49.012;12.104;2023-05-01T09:27:46;97584.13;;;22.68;47.38
65227;BME280;51805;49.012;12.104;2023-05-01T09:30:29;97588.13;;;22.70;47.37
65227;BME280;51805;49.012;12.104;2023-05-01T09:33:23;97588.13;;;22.70;47.31
65227;BME280;51805;49.012;12.104;2023-05-01T09:35:55;97583.31;;;22.67;47.67
65227;BME280;51805;49.012;12.104;2023-05-01T09:38:25;97580.00;;;22.70;47.27
65227;BME280;51805;49.012;12.104;2023-05-01T09:40:53;97587.06;;;22.71;47.28
65227;BME280;51805;49.012;12.104;2023-05-01T09:43:23;97587.06;;;22.71;47.38
65227;BME280;51805;49.012;12.104;2023-05-01T09:46:03;97584.84;;;22.73;47.33
65227;BME280;51805;49.012;12.104;2023-05-01T09:48:28;97585.97;;;22.72;47.25
65227;BME280;51805;49.012;12.104;2023-05-01T09:50:53;97580.53;;;22.72;47.27
65227;BME280;51805;49.012;12.104;2023-05-01T09:53:19;97572.19;;;22.69;47.34
65227;BME280;51805;49.012;12.104;2023-05-01T09:56:00;97579.44;;;22.73;47.32
65227;BME280;51805;49.012;12.104;2023-05-01T09:58:26;97582.16;;;22.73;47.28
65227;BME280;51805;49.012;12.104;2023-05-01T10:00:51;97583.78;;;22.74;47.40
65227;BME280;51805;49.012;12.104;2023-05-01T10:03:16;97577.53;;;22.74;47.29
65227;BME280;51805;49.012;12.104;2023-05-01T10:05:42;97576.72;;;22.73;47.20
65227;BME280;51805;49.012;12.104;2023-05-01T10:08:08;97578.34;;;22.74;47.36
65227;BME280;51805;49.012;12.104;2023-05-01T10:10:33;97570.22;;;22.74;47.40
65227;BME280;51805;49.012;12.104;2023-05-01T10:13:15;97572.66;;;22.76;47.31
65227;BME280;51805;49.012;12.104;2023-05-01T10:15:42;97573.72;;;22.75;47.36
65227;BME280;51805;49.012;12.104;2023-05-01T10:18:09;97571.00;;;22.75;47.43
65227;BME280;51805;49.012;12.104;2023-05-01T10:20:34;97567.53;;;22.74;47.26
65227;BME280;51805;49.012;12.104;2023-05-01T10:23:01;97572.66;;;22.76;47.38
65227;BME280;51805;49.012;12.104;2023-05-01T10:25:26;97563.72;;;22.75;47.31
65227;BME280;51805;49.012;12.104;2023-05-01T10:27:53;97573.16;;;22.78;47.59
65227;BME280;51805;49.012;12.104;2023-05-01T10:30:20;97566.66;;;22.79;48.22
65227;BME280;51805;49.012;12.104;2023-05-01T10:32:45;97570.16;;;22.79;48.29
65227;BME280;51805;49.012;12.104;2023-05-01T10:35:14;97571.78;;;22.80;48.57
65227;BME280;51805;49.012;12.104;2023-05-01T10:37:48;97565.31;;;22.76;48.65
65227;BME280;51805;49.012;12.104;2023-05-01T10:43:23;97576.09;;;22.81;48.41
65227;BME280;51805;49.012;12.104;2023-05-01T10:45:49;97576.09;;;22.81;48.42
65227;BME280;51805;49.012;12.104;2023-05-01T10:53:39;97574.75;;;23.02;48.25
65227;BME280;51805;49.012;12.104;2023-05-01T10:59:00;97571.00;;;23.17;48.44
65227;BME280;51805;49.012;12.104;2023-05-01T11:01:33;97568.81;;;23.19;48.44
65227;BME280;51805;49.012;12.104;2023-05-01T11:04:06;97562.59;;;23.19;48.39
65227;BME280;51805;49.012;12.104;2023-05-01T11:06:31;97560.47;;;23.16;48.45
65227;BME280;51805;49.012;12.104;2023-05-01T11:08:57;97563.97;;;23.16;48.44
65227;BME280;51805;49.012;12.104;2023-05-01T11:16:39;97560.97;;;23.18;48.75
65227;BME280;51805;49.012;12.104;2023-05-01T11:19:06;97563.97;;;23.16;48.66
65227;BME280;51805;49.012;12.104;2023-05-01T11:21:33;97560.97;;;23.18;48.63
65227;BME280;51805;49.012;12.104;2023-05-01T11:24:02;97550.63;;;23.20;48.70
65227;BME280;51805;49.012;12.104;2023-05-01T11:26:28;97542.00;;;23.18;48.49
65227;BME280;51805;49.012;12.104;2023-05-01T11:28:56;97546.84;;;23.21;48.59
65227;BME280;51805;49.012;12.104;2023-05-01T11:31:24;97544.72;;;23.18;48.68
65227;BME280;51805;49.012;12.104;2023-05-01T11:33:49;97544.91;;;23.21;48.70
65227;BME280;51805;49.012;12.104;2023-05-01T11:36:14;97550.34;;;23.21;48.65
65227;BME280;51805;49.012;12.104;2023-05-01T11:38:53;97546.84;;;23.21;48.61
65227;BME280;51805;49.012;12.104;2023-05-01T11:41:19;97543.31;;;23.20;48.69
65227;BME280;51805;49.012;12.104;2023-05-01T11:46:13;97536.00;;;23.21;48.61
65227;BME280;51805;49.012;12.104;2023-05-01T11:48:39;97534.38;;;23.20;48.57
65227;BME280;51805;49.012;12.104;2023-05-01T11:51:11;97516.66;;;23.09;48.69
65227;BME280;51805;49.012;12.104;2023-05-01T11:53:36;97526.31;;;23.15;49.04
65227;BME280;51805;49.012;12.104;2023-05-01T11:56:02;97522.81;;;23.14;48.66
65227;BME280;51805;49.012;12.104;2023-05-01T11:58:33;97534.06;;;23.21;48.66
65227;BME280;51805;49.012;12.104;2023-05-01T12:00:59;97518.19;;;23.15;48.71
65227;BME280;51805;49.012;12.104;2023-05-01T12:03:24;97508.00;;;23.07;49.21
65227;BME280;51805;49.012;12.104;2023-05-01T12:05:50;97520.03;;;23.19;49.36
65227;BME280;51805;49.012;12.104;2023-05-01T12:08:17;97534.31;;;23.25;49.39
65227;BME280;51805;49.012;12.104;2023-05-01T12:10:46;97517.59;;;23.18;49.39
65227;BME280;51805;49.012;12.104;2023-05-01T12:13:13;97519.44;;;23.22;49.34
65227;BME280;51805;49.012;12.104;2023-05-01T12:15:41;97518.06;;;23.25;49.46
65227;BME280;51805;49.012;12.104;2023-05-01T12:18:07;97526.19;;;23.25;49.45
65227;BME280;51805;49.012;12.104;2023-05-01T12:20:46;97517.25;;;23.24;49.35
65227;BME280;51805;49.012;12.104;2023-05-01T12:23:13;97516.97;;;23.26;49.50
65227;BME280;51805;49.012;12.104;2023-05-01T12:25:39;97506.16;;;23.21;49.51
65227;BME280;51805;49.012;12.104;2023-05-01T12:28:13;97512.03;;;23.28;49.46
65227;BME280;51805;49.012;12.104;2023-05-01T12:30:39;97512.88;;;23.28;49.60
65227;BME280;51805;49.012;12.104;2023-05-01T12:33:09;97499.63;;;23.22;49.41
65227;BME280;51805;49.012;12.104;2023-05-01T12:35:34;97496.41;;;23.20;49.23
65227;BME280;51805;49.012;12.104;2023-05-01T12:38:08;97500.47;;;23.22;49.33
65227;BME280;51805;49.012;12.104;2023-05-01T12:40:34;97508.84;;;23.26;49.39
65227;BME280;51805;49.012;12.104;2023-05-01T12:42:59;97494.28;;;23.17;49.54
65227;BME280;51805;49.012;12.104;2023-05-01T12:45:26;97509.41;;;23.23;49.51
65227;BME280;51805;49.012;12.104;2023-05-01T12:47:51;97501.13;;;23.14;49.78
65227;BME280;51805;49.012;12.104;2023-05-01T12:50:17;97506.75;;;23.18;49.56
65227;BME280;51805;49.012;12.104;2023-05-01T12:52:42;97489.03;;;23.07;49.46
65227;BME280;51805;49.012;12.104;2023-05-01T12:55:08;97499.50;;;23.13;49.55
65227;BME280;51805;49.012;12.104;2023-05-01T12:57:33;97462.47;;;22.90;49.52
65227;BME280;51805;49.012;12.104;2023-05-01T13:00:01;97501.94;;;23.15;49.40
65227;BME280;51805;49.012;12.104;2023-05-01T13:02:29;97492.28;;;23.09;49.37
65227;BME280;51805;49.012;12.104;2023-05-01T13:05:09;97500.31;;;23.14;49.34
65227;BME280;51805;49.012;12.104;2023-05-01T13:07:36;97484.78;;;23.00;49.17
65227;BME280;51805;49.012;12.104;2023-05-01T13:10:02;97499.59;;;23.08;49.50
65227;BME280;51805;49.012;12.104;2023-05-01T13:12:27;97478.84;;;22.98;49.28
65227;BME280;51805;49.012;12.104;2023-05-01T13:14:53;97488.03;;;23.02;49.34
65227;BME280;51805;49.012;12.104;2023-05-01T13:17:27;97499.59;;;23.08;49.15